sensor_id;sensor_type;location;lat;lon;timestamp;temperature;humidity
921;DHT22;447;51.332;6.778;2023-03-30T00:01:13;12.90;99.90
921;DHT22;447;51.332;6.778;2023-03-30T00:03:40;12.90;99.90
921;DHT22;447;51.332;6.778;2023-03-30T00:06:08;12.90;99.90
921;DHT22;447;51.332;6.778;2023-03-30T00:08:38;12.90;99.90
921;DHT22;447;51.332;6.778;2023-03-30T00:11:11;12.90;99.90
921;DHT22;447;51.332;6.778;2023-03-30T00:13:44;12.90;99.90
921;DHT22;447;51.332;6.778;2023-03-30T00:16:12;12.90;99.90
921;DHT22;447;51.332;6.778;2023-03-30T00:18:39;12.80;99.90
921;DHT22;447;51.332;6.778;2023-03-30T00:21:07;12.90;99.90
921;DHT22;447;51.332;6.778;2023-03-30T00:23:34;12.90;99.90
921;DHT22;447;51.332;6.778;2023-03-30T00:26:00;12.80;99.90
921;DHT22;447;51.332;6.778;2023-03-30T00:28:28;12.80;99.90
921;DHT22;447;51.332;6.778;2023-03-30T00:30:58;12.80;99.90
921;DHT22;447;51.332;6.778;2023-03-30T00:33:24;12.80;99.90
921;DHT22;447;51.332;6.778;2023-03-30T00:35:55;12.80;99.90
921;DHT22;447;51.332;6.778;2023-03-30T00:38:21;12.80;99.90
921;DHT22;447;51.332;6.778;2023-03-30T00:40:57;12.80;99.90
921;DHT22;447;51.332;6.778;2023-03-30T00:43:25;12.80;99.90
921;DHT22;447;51.332;6.778;2023-03-30T00:45:51;12.80;99.90
921;DHT22;447;51.332;6.778;2023-03-30T00:48:24;12.80;99.90
921;DHT22;447;51.332;6.778;2023-03-30T00:50:52;12.80;99.90
921;DHT22;447;51.332;6.778;2023-03-30T00:55:58;12.80;99.90
921;DHT22;447;51.332;6.778;2023-03-30T00:58:26;12.80;99.90
921;DHT22;447;51.332;6.778;2023-03-30T01:00:53;12.80;99.90
921;DHT22;447;51.332;6.778;2023-03-30T01:03:27;12.80;99.90
921;DHT22;447;51.332;6.778;2023-03-30T01:05:59;12.80;99.90
921;DHT22;447;51.332;6.778;2023-03-30T01:08:29;12.80;99.90
921;DHT22;447;51.332;6.778;2023-03-30T01:10:59;12.80;99.90
921;DHT22;447;51.332;6.778;2023-03-30T01:13:30;12.80;99.90
921;DHT22;447;51.332;6.778;2023-03-30T01:24:24;12.80;99.90
921;DHT22;447;51.332;6.778;2023-03-30T01:27:00;12.80;99.90
921;DHT22;447;51.332;6.778;2023-03-30T01:32:36;12.80;99.90
921;DHT22;447;51.332;6.778;2023-03-30T01:40:39;12.80;99.90
921;DHT22;447;51.332;6.778;2023-03-30T01:43:18;12.80;99.90
921;DHT22;447;51.332;6.778;2023-03-30T01:45:53;12.80;99.90
921;DHT22;447;51.332;6.778;2023-03-30T01:48:43;12.80;99.90
921;DHT22;447;51.332;6.778;2023-03-30T01:51:21;12.80;99.90
921;DHT22;447;51.332;6.778;2023-03-30T01:56:24;12.80;99.90
921;DHT22;447;51.332;6.778;2023-03-30T01:59:10;12.70;99.90
921;DHT22;447;51.332;6.778;2023-03-30T02:01:40;12.80;99.90
921;DHT22;447;51.332;6.778;2023-03-30T02:04:09;12.80;99.90
921;DHT22;447;51.332;6.778;2023-03-30T02:06:44;12.80;99.90
921;DHT22;447;51.332;6.778;2023-03-30T02:09:15;12.80;99.90
921;DHT22;447;51.332;6.778;2023-03-30T02:11:45;12.80;99.90
921;DHT22;447;51.332;6.778;2023-03-30T02:14:15;12.80;99.90
921;DHT22;447;51.332;6.778;2023-03-30T02:16:48;12.80;99.90
921;DHT22;447;51.332;6.778;2023-03-30T02:19:15;12.80;99.90
921;DHT22;447;51.332;6.778;2023-03-30T02:21:42;12.80;99.90
921;DHT22;447;51.332;6.778;2023-03-30T02:24:12;12.80;99.90
921;DHT22;447;51.332;6.778;2023-03-30T02:26:48;12.80;99.90
921;DHT22;447;51.332;6.778;2023-03-30T02:29:15;12.80;99.90
921;DHT22;447;51.332;6.778;2023-03-30T02:31:43;12.80;99.90
921;DHT22;447;51.332;6.778;2023-03-30T02:37:18;12.80;99.90
921;DHT22;447;51.332;6.778;2023-03-30T02:48:28;12.80;99.90
921;DHT22;447;51.332;6.778;2023-03-30T02:51:21;12.80;99.90
921;DHT22;447;51.332;6.778;2023-03-30T03:00:39;12.70;99.90
921;DHT22;447;51.332;6.778;2023-03-30T03:03:17;12.70;99.90
921;DHT22;447;51.332;6.778;2023-03-30T03:05:46;12.70;99.90
921;DHT22;447;51.332;6.778;2023-03-30T03:08:14;12.70;99.90
921;DHT22;447;51.332;6.778;2023-03-30T03:10:47;12.70;99.90
921;DHT22;447;51.332;6.778;2023-03-30T03:13:14;12.70;99.90
921;DHT22;447;51.332;6.778;2023-03-30T03:15:45;12.70;99.90
921;DHT22;447;51.332;6.778;2023-03-30T03:18:16;12.70;99.90
921;DHT22;447;51.332;6.778;2023-03-30T03:20:43;12.70;99.90
921;DHT22;447;51.332;6.778;2023-03-30T03:23:09;12.70;99.90
921;DHT22;447;51.332;6.778;2023-03-30T03:25:44;12.70;99.90
921;DHT22;447;51.332;6.778;2023-03-30T03:28:37;12.70;99.90
921;DHT22;447;51.332;6.778;2023-03-30T03:31:09;12.80;99.90
921;DHT22;447;51.332;6.778;2023-03-30T03:33:35;12.70;99.90
921;DHT22;447;51.332;6.778;2023-03-30T03:36:13;12.80;99.90
921;DHT22;447;51.332;6.778;2023-03-30T03:38:45;12.80;99.90
921;DHT22;447;51.332;6.778;2023-03-30T03:41:13;12.70;99.90
921;DHT22;447;51.332;6.778;2023-03-30T03:43:41;12.70;99.90
921;DHT22;447;51.332;6.778;2023-03-30T03:46:10;12.80;99.90
921;DHT22;447;51.332;6.778;2023-03-30T03:48:36;12.70;99.90
921;DHT22;447;51.332;6.778;2023-03-30T03:51:02;12.70;99.90
921;DHT22;447;51.332;6.778;2023-03-30T03:53:32;12.80;99.90
921;DHT22;447;51.332;6.778;2023-03-30T03:56:05;12.80;99.90
921;DHT22;447;51.332;6.778;2023-03-30T03:58:33;12.70;99.90
921;DHT22;447;51.332;6.778;2023-03-30T04:01:00;12.70;99.90
921;DHT22;447;51.332;6.778;2023-03-30T04:03:29;12.70;99.90
921;DHT22;447;51.332;6.778;2023-03-30T04:05:59;12.70;99.90
921;DHT22;447;51.332;6.778;2023-03-30T04:08:27;12.70;99.90
921;DHT22;447;51.332;6.778;2023-03-30T04:11:10;12.80;99.90
921;DHT22;447;51.332;6.778;2023-03-30T04:13:55;12.70;99.90
921;DHT22;447;51.332;6.778;2023-03-30T04:16:39;12.70;99.90
921;DHT22;447;51.332;6.778;2023-03-30T04:19:27;12.80;99.90
921;DHT22;447;51.332;6.778;2023-03-30T04:22:23;12.70;99.90
921;DHT22;447;51.332;6.778;2023-03-30T04:29:36;12.70;99.90
921;DHT22;447;51.332;6.778;2023-03-30T04:32:38;12.70;99.90
921;DHT22;447;51.332;6.778;2023-03-30T04:35:24;12.70;99.90
921;DHT22;447;51.332;6.778;2023-03-30T04:38:02;12.70;99.90
921;DHT22;447;51.332;6.778;2023-03-30T04:41:03;12.70;99.90
921;DHT22;447;51.332;6.778;2023-03-30T04:43:43;12.70;99.90
921;DHT22;447;51.332;6.778;2023-03-30T04:46:27;12.70;99.90
921;DHT22;447;51.332;6.778;2023-03-30T04:49:13;12.70;99.90
921;DHT22;447;51.332;6.778;2023-03-30T04:52:00;12.70;99.90
921;DHT22;447;51.332;6.778;2023-03-30T04:54:53;12.70;99.90
921;DHT22;447;51.332;6.778;2023-03-30T04:57:37;12.70;99.90
921;DHT22;447;51.332;6.778;2023-03-30T05:00:26;12.70;99.90
921;DHT22;447;51.332;6.778;2023-03-30T05:03:12;12.70;99.90
921;DHT22;447;51.332;6.778;2023-03-30T05:06:03;12.70;99.90
921;DHT22;447;51.332;6.778;2023-03-30T05:08:48;12.70;99.90
921;DHT22;447;51.332;6.778;2023-03-30T05:11:20;12.70;99.90
921;DHT22;447;51.332;6.778;2023-03-30T05:14:18;12.70;99.90
921;DHT22;447;51.332;6.778;2023-03-30T05:17:04;12.80;99.90
921;DHT22;447;51.332;6.778;2023-03-30T05:19:55;12.80;99.90
921;DHT22;447;51.332;6.778;2023-03-30T05:22:50;12.80;99.90
921;DHT22;447;51.332;6.778;2023-03-30T05:25:36;12.80;99.90
921;DHT22;447;51.332;6.778;2023-03-30T05:28:21;12.80;99.90
921;DHT22;447;51.332;6.778;2023-03-30T05:31:07;12.80;99.90
921;DHT22;447;51.332;6.778;2023-03-30T05:33:58;12.80;99.90
921;DHT22;447;51.332;6.778;2023-03-30T05:36:32;12.80;99.90
921;DHT22;447;51.332;6.778;2023-03-30T05:39:08;12.80;99.90
921;DHT22;447;51.332;6.778;2023-03-30T05:42:13;12.80;99.90
921;DHT22;447;51.332;6.778;2023-03-30T05:44:51;12.90;99.90
921;DHT22;447;51.332;6.778;2023-03-30T05:47:40;12.90;99.90
921;DHT22;447;51.332;6.778;2023-03-30T05:50:28;12.90;99.90
921;DHT22;447;51.332;6.778;2023-03-30T05:53:03;12.90;99.90
921;DHT22;447;51.332;6.778;2023-03-30T05:55:48;12.90;99.90
921;DHT22;447;51.332;6.778;2023-03-30T05:58:38;12.90;99.90
921;DHT22;447;51.332;6.778;2023-03-30T06:01:04;12.90;99.90
921;DHT22;447;51.332;6.778;2023-03-30T06:03:36;12.90;99.90
921;DHT22;447;51.332;6.778;2023-03-30T06:06:04;12.90;99.90
921;DHT22;447;51.332;6.778;2023-03-30T06:08:33;12.90;99.90
921;DHT22;447;51.332;6.778;2023-03-30T06:11:03;12.90;99.90
921;DHT22;447;51.332;6.778;2023-03-30T06:13:41;12.90;99.90
921;DHT22;447;51.332;6.778;2023-03-30T06:16:07;12.90;99.90
921;DHT22;447;51.332;6.778;2023-03-30T06:18:36;13.00;99.90
921;DHT22;447;51.332;6.778;2023-03-30T06:21:06;13.00;99.90
921;DHT22;447;51.332;6.778;2023-03-30T06:23:40;13.00;99.90
921;DHT22;447;51.332;6.778;2023-03-30T06:26:15;13.00;99.90
921;DHT22;447;51.332;6.778;2023-03-30T06:28:41;13.00;99.90
921;DHT22;447;51.332;6.778;2023-03-30T06:31:12;13.00;99.90
921;DHT22;447;51.332;6.778;2023-03-30T06:33:41;13.00;99.90
921;DHT22;447;51.332;6.778;2023-03-30T06:36:16;12.90;99.90
921;DHT22;447;51.332;6.778;2023-03-30T06:38:45;13.00;99.90
921;DHT22;447;51.332;6.778;2023-03-30T06:41:20;13.00;99.90
921;DHT22;447;51.332;6.778;2023-03-30T06:43:48;13.00;99.90
921;DHT22;447;51.332;6.778;2023-03-30T06:46:15;13.00;99.90
921;DHT22;447;51.332;6.778;2023-03-30T06:48:47;13.00;99.90
921;DHT22;447;51.332;6.778;2023-03-30T06:51:33;13.00;99.90
921;DHT22;447;51.332;6.778;2023-03-30T06:54:04;13.00;99.90
921;DHT22;447;51.332;6.778;2023-03-30T06:56:30;13.00;99.90
921;DHT22;447;51.332;6.778;2023-03-30T06:59:16;13.00;99.90
921;DHT22;447;51.332;6.778;2023-03-30T07:02:06;13.00;99.90
921;DHT22;447;51.332;6.778;2023-03-30T07:04:50;13.00;99.90
921;DHT22;447;51.332;6.778;2023-03-30T07:07:31;13.00;99.90
921;DHT22;447;51.332;6.778;2023-03-30T07:10:01;13.00;99.90
921;DHT22;447;51.332;6.778;2023-03-30T07:12:37;13.00;99.90
921;DHT22;447;51.332;6.778;2023-03-30T07:15:07;13.00;99.90
921;DHT22;447;51.332;6.778;2023-03-30T07:17:38;13.00;99.90
921;DHT22;447;51.332;6.778;2023-03-30T07:20:08;13.10;99.90
921;DHT22;447;51.332;6.778;2023-03-30T07:22:54;13.10;99.90
921;DHT22;447;51.332;6.778;2023-03-30T07:25:23;13.10;99.90
921;DHT22;447;51.332;6.778;2023-03-30T07:27:55;13.10;99.90
921;DHT22;447;51.332;6.778;2023-03-30T07:30:21;13.10;99.90
921;DHT22;447;51.332;6.778;2023-03-30T07:32:49;13.10;99.90
921;DHT22;447;51.332;6.778;2023-03-30T07:35:18;13.10;99.90
921;DHT22;447;51.332;6.778;2023-03-30T07:37:47;13.10;99.90
921;DHT22;447;51.332;6.778;2023-03-30T07:40:18;13.20;99.90
921;DHT22;447;51.332;6.778;2023-03-30T07:42:46;13.20;99.90
921;DHT22;447;51.332;6.778;2023-03-30T07:45:13;13.20;99.90
921;DHT22;447;51.332;6.778;2023-03-30T07:47:44;13.20;99.90
921;DHT22;447;51.332;6.778;2023-03-30T07:50:12;13.20;99.90
921;DHT22;447;51.332;6.778;2023-03-30T07:52:40;13.20;99.90
921;DHT22;447;51.332;6.778;2023-03-30T07:55:11;13.20;99.90
921;DHT22;447;51.332;6.778;2023-03-30T07:57:47;13.20;99.90
921;DHT22;447;51.332;6.778;2023-03-30T08:00:15;13.20;99.90
921;DHT22;447;51.332;6.778;2023-03-30T08:03:01;13.20;99.90
921;DHT22;447;51.332;6.778;2023-03-30T08:05:28;13.20;99.90
921;DHT22;447;51.332;6.778;2023-03-30T08:08:06;13.20;99.90
921;DHT22;447;51.332;6.778;2023-03-30T08:10:33;13.20;99.90
921;DHT22;447;51.332;6.778;2023-03-30T08:13:02;13.20;99.90
921;DHT22;447;51.332;6.778;2023-03-30T08:15:31;13.20;99.90
921;DHT22;447;51.332;6.778;2023-03-30T08:17:56;13.20;99.90
921;DHT22;447;51.332;6.778;2023-03-30T08:20:23;13.20;99.90
921;DHT22;447;51.332;6.778;2023-03-30T08:22:49;13.30;99.90
921;DHT22;447;51.332;6.778;2023-03-30T08:25:15;13.30;99.90
921;DHT22;447;51.332;6.778;2023-03-30T08:27:41;13.30;99.90
921;DHT22;447;51.332;6.778;2023-03-30T08:30:07;13.30;99.90
921;DHT22;447;51.332;6.778;2023-03-30T08:32:34;13.30;99.90
921;DHT22;447;51.332;6.778;2023-03-30T08:35:04;13.30;99.90
921;DHT22;447;51.332;6.778;2023-03-30T08:37:30;13.30;99.90
921;DHT22;447;51.332;6.778;2023-03-30T08:39:56;13.30;99.90
921;DHT22;447;51.332;6.778;2023-03-30T08:45:12;13.30;99.90
921;DHT22;447;51.332;6.778;2023-03-30T08:47:40;13.30;99.90
921;DHT22;447;51.332;6.778;2023-03-30T08:50:13;13.30;99.90
921;DHT22;447;51.332;6.778;2023-03-30T08:52:41;13.30;99.90
921;DHT22;447;51.332;6.778;2023-03-30T08:55:18;13.30;99.90
921;DHT22;447;51.332;6.778;2023-03-30T09:00:47;13.40;99.90
921;DHT22;447;51.332;6.778;2023-03-30T09:03:22;13.40;99.90
921;DHT22;447;51.332;6.778;2023-03-30T09:05:57;13.40;99.90
921;DHT22;447;51.332;6.778;2023-03-30T09:08:26;13.40;99.90
921;DHT22;447;51.332;6.778;2023-03-30T09:11:01;13.40;99.90
921;DHT22;447;51.332;6.778;2023-03-30T09:13:33;13.40;99.90
921;DHT22;447;51.332;6.778;2023-03-30T09:16:15;13.50;99.90
921;DHT22;447;51.332;6.778;2023-03-30T09:18:46;13.50;99.90
921;DHT22;447;51.332;6.778;2023-03-30T09:21:24;13.50;99.90
921;DHT22;447;51.332;6.778;2023-03-30T09:23:55;13.50;99.90
921;DHT22;447;51.332;6.778;2023-03-30T09:26:50;13.50;99.90
921;DHT22;447;51.332;6.778;2023-03-30T09:29:32;13.50;99.90
921;DHT22;447;51.332;6.778;2023-03-30T09:32:13;13.60;99.90
921;DHT22;447;51.332;6.778;2023-03-30T09:35:04;13.50;99.90
921;DHT22;447;51.332;6.778;2023-03-30T09:37:33;13.60;99.90
921;DHT22;447;51.332;6.778;2023-03-30T09:43:18;13.60;99.90
921;DHT22;447;51.332;6.778;2023-03-30T09:45:49;13.60;99.90
921;DHT22;447;51.332;6.778;2023-03-30T09:48:16;13.60;99.90
921;DHT22;447;51.332;6.778;2023-03-30T09:50:45;13.60;99.90
921;DHT22;447;51.332;6.778;2023-03-30T09:53:24;13.60;99.90
921;DHT22;447;51.332;6.778;2023-03-30T09:56:06;13.60;99.90
921;DHT22;447;51.332;6.778;2023-03-30T09:58:37;13.60;99.90
921;DHT22;447;51.332;6.778;2023-03-30T10:01:15;13.60;99.90
921;DHT22;447;51.332;6.778;2023-03-30T10:04:05;13.60;99.90
921;DHT22;447;51.332;6.778;2023-03-30T10:06:43;13.50;99.90
921;DHT22;447;51.332;6.778;2023-03-30T10:09:15;13.50;99.90
921;DHT22;447;51.332;6.778;2023-03-30T10:11:48;13.50;99.90
921;DHT22;447;51.332;6.778;2023-03-30T10:14:30;13.50;99.90
921;DHT22;447;51.332;6.778;2023-03-30T10:16:58;13.50;99.90
921;DHT22;447;51.332;6.778;2023-03-30T10:19:27;13.50;99.90
921;DHT22;447;51.332;6.778;2023-03-30T10:21:57;13.40;99.90
921;DHT22;447;51.332;6.778;2023-03-30T10:24:30;13.50;99.90
921;DHT22;447;51.332;6.778;2023-03-30T10:26:58;13.50;99.90
921;DHT22;447;51.332;6.778;2023-03-30T10:29:30;13.50;99.90
921;DHT22;447;51.332;6.778;2023-03-30T10:32:02;13.50;99.90
921;DHT22;447;51.332;6.778;2023-03-30T10:34:43;13.50;99.90
921;DHT22;447;51.332;6.778;2023-03-30T10:37:16;13.50;99.90
921;DHT22;447;51.332;6.778;2023-03-30T10:39:46;13.50;99.90
921;DHT22;447;51.332;6.778;2023-03-30T10:42:17;13.50;99.90
921;DHT22;447;51.332;6.778;2023-03-30T10:44:53;13.50;99.90
921;DHT22;447;51.332;6.778;2023-03-30T10:50:53;13.50;99.90
921;DHT22;447;51.332;6.778;2023-03-30T10:53:40;13.50;99.90
921;DHT22;447;51.332;6.778;2023-03-30T11:07:39;13.60;99.90
921;DHT22;447;51.332;6.778;2023-03-30T11:10:25;13.70;99.90
921;DHT22;447;51.332;6.778;2023-03-30T11:13:06;13.70;99.90
921;DHT22;447;51.332;6.778;2023-03-30T11:15:56;13.70;99.90
921;DHT22;447;51.332;6.778;2023-03-30T11:23:57;13.80;99.90
921;DHT22;447;51.332;6.778;2023-03-30T11:32:20;13.80;99.90
921;DHT22;447;51.332;6.778;2023-03-30T11:35:11;13.90;99.90
921;DHT22;447;51.332;6.778;2023-03-30T11:40:26;13.90;99.90
921;DHT22;447;51.332;6.778;2023-03-30T11:42:57;13.90;99.90
921;DHT22;447;51.332;6.778;2023-03-30T11:51:26;14.00;99.90
921;DHT22;447;51.332;6.778;2023-03-30T11:59:28;14.00;99.90
921;DHT22;447;51.332;6.778;2023-03-30T12:05:02;14.10;99.90
921;DHT22;447;51.332;6.778;2023-03-30T12:08:02;14.10;99.90
921;DHT22;447;51.332;6.778;2023-03-30T12:10:41;14.10;99.90
921;DHT22;447;51.332;6.778;2023-03-30T12:13:15;14.10;99.90
921;DHT22;447;51.332;6.778;2023-03-30T12:16:04;14.10;99.90
921;DHT22;447;51.332;6.778;2023-03-30T12:26:39;14.10;99.90
921;DHT22;447;51.332;6.778;2023-03-30T12:29:16;14.10;99.90
921;DHT22;447;51.332;6.778;2023-03-30T12:32:04;14.10;99.90
921;DHT22;447;51.332;6.778;2023-03-30T12:34:36;14.10;99.90
921;DHT22;447;51.332;6.778;2023-03-30T12:37:06;14.10;99.90
921;DHT22;447;51.332;6.778;2023-03-30T12:39:39;14.00;99.90
921;DHT22;447;51.332;6.778;2023-03-30T12:42:20;14.00;99.90
921;DHT22;447;51.332;6.778;2023-03-30T12:55:07;14.00;99.90
921;DHT22;447;51.332;6.778;2023-03-30T13:03:49;13.90;99.90
921;DHT22;447;51.332;6.778;2023-03-30T13:06:30;13.90;99.90
921;DHT22;447;51.332;6.778;2023-03-30T13:27:22;13.90;99.90
921;DHT22;447;51.332;6.778;2023-03-30T13:30:11;13.90;99.90
921;DHT22;447;51.332;6.778;2023-03-30T13:35:47;13.90;99.90
921;DHT22;447;51.332;6.778;2023-03-30T13:38:28;14.00;99.90
921;DHT22;447;51.332;6.778;2023-03-30T13:44:04;14.00;99.90
921;DHT22;447;51.332;6.778;2023-03-30T13:46:53;14.00;99.90
921;DHT22;447;51.332;6.778;2023-03-30T13:52:24;14.10;99.90
921;DHT22;447;51.332;6.778;2023-03-30T13:54:52;14.10;99.90
921;DHT22;447;51.332;6.778;2023-03-30T13:57:21;14.10;99.90
921;DHT22;447;51.332;6.778;2023-03-30T13:59:58;14.10;99.90
921;DHT22;447;51.332;6.778;2023-03-30T14:02:30;14.20;99.90
921;DHT22;447;51.332;6.778;2023-03-30T14:05:17;14.20;99.90
921;DHT22;447;51.332;6.778;2023-03-30T14:07:46;14.20;99.90
921;DHT22;447;51.332;6.778;2023-03-30T14:10:21;14.20;99.90
921;DHT22;447;51.332;6.778;2023-03-30T14:12:55;14.20;99.90
921;DHT22;447;51.332;6.778;2023-03-30T14:15:35;14.30;99.90
921;DHT22;447;51.332;6.778;2023-03-30T14:18:03;14.30;99.90
921;DHT22;447;51.332;6.778;2023-03-30T14:20:47;14.30;99.90
921;DHT22;447;51.332;6.778;2023-03-30T14:23:18;14.30;99.90
921;DHT22;447;51.332;6.778;2023-03-30T14:25:45;14.40;99.90
921;DHT22;447;51.332;6.778;2023-03-30T14:28:18;14.40;99.90
921;DHT22;447;51.332;6.778;2023-03-30T14:30:59;14.40;99.90
921;DHT22;447;51.332;6.778;2023-03-30T14:33:37;14.50;99.90
921;DHT22;447;51.332;6.778;2023-03-30T14:36:18;14.40;99.90
921;DHT22;447;51.332;6.778;2023-03-30T14:38:49;14.50;99.90
921;DHT22;447;51.332;6.778;2023-03-30T14:44:04;14.50;99.90
921;DHT22;447;51.332;6.778;2023-03-30T14:46:48;14.50;99.90
921;DHT22;447;51.332;6.778;2023-03-30T14:52:43;14.60;99.90
921;DHT22;447;51.332;6.778;2023-03-30T14:55:24;14.60;99.90
921;DHT22;447;51.332;6.778;2023-03-30T14:58:16;14.60;99.90
921;DHT22;447;51.332;6.778;2023-03-30T15:00:43;14.60;99.90
921;DHT22;447;51.332;6.778;2023-03-30T15:03:35;14.60;99.90
921;DHT22;447;51.332;6.778;2023-03-30T15:06:04;14.60;99.90
921;DHT22;447;51.332;6.778;2023-03-30T15:08:39;14.60;99.90
921;DHT22;447;51.332;6.778;2023-03-30T15:11:13;14.60;99.90
921;DHT22;447;51.332;6.778;2023-03-30T15:13:46;14.60;99.90
921;DHT22;447;51.332;6.778;2023-03-30T15:16:21;14.60;99.90
921;DHT22;447;51.332;6.778;2023-03-30T15:18:52;14.60;99.90
921;DHT22;447;51.332;6.778;2023-03-30T15:21:33;14.60;99.90
921;DHT22;447;51.332;6.778;2023-03-30T15:24:25;14.70;99.90
921;DHT22;447;51.332;6.778;2023-03-30T15:27:26;14.70;99.90
921;DHT22;447;51.332;6.778;2023-03-30T15:30:53;14.70;99.90
921;DHT22;447;51.332;6.778;2023-03-30T15:34:25;14.70;99.90
921;DHT22;447;51.332;6.778;2023-03-30T15:37:21;14.70;99.90
921;DHT22;447;51.332;6.778;2023-03-30T15:40:03;14.60;99.90
921;DHT22;447;51.332;6.778;2023-03-30T15:42:37;14.60;99.90
921;DHT22;447;51.332;6.778;2023-03-30T15:45:11;14.60;99.90
921;DHT22;447;51.332;6.778;2023-03-30T15:47:38;14.60;99.90
921;DHT22;447;51.332;6.778;2023-03-30T15:50:08;14.60;99.90
921;DHT22;447;51.332;6.778;2023-03-30T15:52:42;14.60;99.90
921;DHT22;447;51.332;6.778;2023-03-30T15:55:17;14.60;99.90
921;DHT22;447;51.332;6.778;2023-03-30T15:57:46;14.60;99.90
921;DHT22;447;51.332;6.778;2023-03-30T16:00:21;14.60;99.90
921;DHT22;447;51.332;6.778;2023-03-30T16:02:51;14.60;99.90
921;DHT22;447;51.332;6.778;2023-03-30T16:05:26;14.60;99.90
921;DHT22;447;51.332;6.778;2023-03-30T16:07:53;14.70;99.90
921;DHT22;447;51.332;6.778;2023-03-30T16:10:42;14.70;99.90
921;DHT22;447;51.332;6.778;2023-03-30T16:13:18;14.70;99.90
921;DHT22;447;51.332;6.778;2023-03-30T16:15:47;14.70;99.90
921;DHT22;447;51.332;6.778;2023-03-30T16:18:13;14.70;99.90
921;DHT22;447;51.332;6.778;2023-03-30T16:20:41;14.80;99.90
921;DHT22;447;51.332;6.778;2023-03-30T16:23:13;14.90;99.90
921;DHT22;447;51.332;6.778;2023-03-30T16:25:39;15.00;99.90
921;DHT22;447;51.332;6.778;2023-03-30T16:28:13;14.80;99.90
921;DHT22;447;51.332;6.778;2023-03-30T16:30:47;14.90;99.90
921;DHT22;447;51.332;6.778;2023-03-30T16:33:33;14.90;99.90
921;DHT22;447;51.332;6.778;2023-03-30T16:35:59;14.90;99.90
921;DHT22;447;51.332;6.778;2023-03-30T16:38:25;15.00;99.90
921;DHT22;447;51.332;6.778;2023-03-30T16:40:58;15.00;99.90
921;DHT22;447;51.332;6.778;2023-03-30T16:43:27;15.10;99.90
921;DHT22;447;51.332;6.778;2023-03-30T16:45:53;15.00;99.90
921;DHT22;447;51.332;6.778;2023-03-30T16:52:31;15.00;99.90
921;DHT22;447;51.332;6.778;2023-03-30T16:55:04;15.00;99.90
921;DHT22;447;51.332;6.778;2023-03-30T16:57:39;14.90;99.90
921;DHT22;447;51.332;6.778;2023-03-30T17:00:30;14.90;99.90
921;DHT22;447;51.332;6.778;2023-03-30T17:07:42;15.00;99.90
921;DHT22;447;51.332;6.778;2023-03-30T17:18:16;14.80;99.90
921;DHT22;447;51.332;6.778;2023-03-30T17:24:34;14.60;99.90
921;DHT22;447;51.332;6.778;2023-03-30T17:27:19;14.60;99.90
921;DHT22;447;51.332;6.778;2023-03-30T17:33:09;14.50;99.90
921;DHT22;447;51.332;6.778;2023-03-30T17:36:39;14.50;99.90
921;DHT22;447;51.332;6.778;2023-03-30T17:40:28;14.50;99.90
921;DHT22;447;51.332;6.778;2023-03-30T17:43:41;14.50;99.90
921;DHT22;447;51.332;6.778;2023-03-30T17:46:52;14.40;99.90
921;DHT22;447;51.332;6.778;2023-03-30T17:49:47;14.40;99.90
921;DHT22;447;51.332;6.778;2023-03-30T17:52:21;14.40;99.90
921;DHT22;447;51.332;6.778;2023-03-30T17:55:00;14.40;99.90
921;DHT22;447;51.332;6.778;2023-03-30T17:57:28;14.40;99.90
921;DHT22;447;51.332;6.778;2023-03-30T18:02:55;14.40;99.90
921;DHT22;447;51.332;6.778;2023-03-30T18:05:39;14.30;99.90
921;DHT22;447;51.332;6.778;2023-03-30T18:08:11;14.30;99.90
921;DHT22;447;51.332;6.778;2023-03-30T18:10:49;14.30;99.90
921;DHT22;447;51.332;6.778;2023-03-30T18:13:31;14.30;99.90
921;DHT22;447;51.332;6.778;2023-03-30T18:16:30;14.30;99.90
921;DHT22;447;51.332;6.778;2023-03-30T18:19:00;14.30;99.90
921;DHT22;447;51.332;6.778;2023-03-30T18:21:27;14.30;99.90
921;DHT22;447;51.332;6.778;2023-03-30T18:23:53;14.30;99.90
921;DHT22;447;51.332;6.778;2023-03-30T18:26:19;14.30;99.90
921;DHT22;447;51.332;6.778;2023-03-30T18:28:48;14.30;99.90
921;DHT22;447;51.332;6.778;2023-03-30T18:31:16;14.30;99.90
921;DHT22;447;51.332;6.778;2023-03-30T18:34:06;14.20;99.90
921;DHT22;447;51.332;6.778;2023-03-30T18:36:59;14.20;99.90
921;DHT22;447;51.332;6.778;2023-03-30T18:43:44;14.20;99.90
921;DHT22;447;51.332;6.778;2023-03-30T18:46:13;14.20;99.90
921;DHT22;447;51.332;6.778;2023-03-30T18:48:39;14.20;99.90
921;DHT22;447;51.332;6.778;2023-03-30T18:51:30;14.20;99.90
921;DHT22;447;51.332;6.778;2023-03-30T18:54:03;14.10;99.90
921;DHT22;447;51.332;6.778;2023-03-30T18:56:59;14.10;99.90
921;DHT22;447;51.332;6.778;2023-03-30T19:08:43;14.20;99.90
921;DHT22;447;51.332;6.778;2023-03-30T19:15:18;14.00;99.90
921;DHT22;447;51.332;6.778;2023-03-30T19:17:47;14.00;99.90
921;DHT22;447;51.332;6.778;2023-03-30T19:20:13;14.00;99.90
921;DHT22;447;51.332;6.778;2023-03-30T19:22:40;14.00;99.90
921;DHT22;447;51.332;6.778;2023-03-30T19:25:07;14.00;99.90
921;DHT22;447;51.332;6.778;2023-03-30T19:27:33;14.00;99.90
921;DHT22;447;51.332;6.778;2023-03-30T19:30:01;14.00;99.90
921;DHT22;447;51.332;6.778;2023-03-30T19:32:28;14.00;99.90
921;DHT22;447;51.332;6.778;2023-03-30T19:34:59;14.00;99.90
921;DHT22;447;51.332;6.778;2023-03-30T19:37:25;14.00;99.90
921;DHT22;447;51.332;6.778;2023-03-30T19:39:51;14.00;99.90
921;DHT22;447;51.332;6.778;2023-03-30T19:42:17;14.00;99.90
921;DHT22;447;51.332;6.778;2023-03-30T19:44:43;14.00;99.90
921;DHT22;447;51.332;6.778;2023-03-30T19:47:12;14.00;99.90
921;DHT22;447;51.332;6.778;2023-03-30T19:49:38;14.00;99.90
921;DHT22;447;51.332;6.778;2023-03-30T19:52:05;14.00;99.90
921;DHT22;447;51.332;6.778;2023-03-30T19:54:31;14.00;99.90
921;DHT22;447;51.332;6.778;2023-03-30T19:56:57;14.00;99.90
921;DHT22;447;51.332;6.778;2023-03-30T19:59:26;13.90;99.90
921;DHT22;447;51.332;6.778;2023-03-30T20:02:22;13.90;99.90
921;DHT22;447;51.332;6.778;2023-03-30T20:13:44;13.90;99.90
921;DHT22;447;51.332;6.778;2023-03-30T20:16:29;13.90;99.90
921;DHT22;447;51.332;6.778;2023-03-30T20:18:59;13.80;99.90
921;DHT22;447;51.332;6.778;2023-03-30T20:21:31;13.90;99.90
921;DHT22;447;51.332;6.778;2023-03-30T20:23:58;13.80;99.90
921;DHT22;447;51.332;6.778;2023-03-30T20:26:27;13.90;99.90
921;DHT22;447;51.332;6.778;2023-03-30T20:28:54;13.80;99.90
921;DHT22;447;51.332;6.778;2023-03-30T20:34:43;13.80;99.90
921;DHT22;447;51.332;6.778;2023-03-30T20:37:11;13.80;99.90
921;DHT22;447;51.332;6.778;2023-03-30T20:39:37;13.80;99.90
921;DHT22;447;51.332;6.778;2023-03-30T20:42:03;13.80;99.90
921;DHT22;447;51.332;6.778;2023-03-30T20:44:34;13.80;99.90
921;DHT22;447;51.332;6.778;2023-03-30T20:47:02;13.80;99.90
921;DHT22;447;51.332;6.778;2023-03-30T20:49:30;13.80;99.90
921;DHT22;447;51.332;6.778;2023-03-30T20:51:58;13.80;99.90
921;DHT22;447;51.332;6.778;2023-03-30T20:54:26;13.80;99.90
921;DHT22;447;51.332;6.778;2023-03-30T20:56:52;13.70;99.90
921;DHT22;447;51.332;6.778;2023-03-30T20:59:18;13.80;99.90